createdAt,value
2022-09-07T00:01:15.677Z,16.73
2022-09-07T00:03:41.996Z,6.68
2022-09-07T00:06:09.503Z,9.48
2022-09-07T00:08:35.817Z,5.63
2022-09-07T00:11:03.888Z,10.65
2022-09-07T00:13:32.161Z,6.68
2022-09-07T00:15:58.575Z,7.63
2022-09-07T00:18:25.408Z,11.52
2022-09-07T00:20:59.234Z,9.35
2022-09-07T00:23:25.503Z,7.60
2022-09-07T00:25:54.098Z,6.50
2022-09-07T00:28:20.562Z,6.53
2022-09-07T00:30:46.808Z,8.00
2022-09-07T00:33:13.049Z,7.07
2022-09-07T00:35:40.274Z,8.15
2022-09-07T00:38:06.677Z,6.43
2022-09-07T00:40:32.960Z,6.63
2022-09-07T00:42:59.199Z,8.55
2022-09-07T00:45:25.579Z,8.13
2022-09-07T00:47:55.460Z,9.10
2022-09-07T00:50:30.541Z,7.20
2022-09-07T00:53:00.821Z,9.20
2022-09-07T00:55:27.584Z,7.10
2022-09-07T00:57:55.775Z,6.97
2022-09-07T01:00:22.185Z,10.55
2022-09-07T01:02:50.184Z,9.05
2022-09-07T01:05:25.657Z,7.40
2022-09-07T01:07:53.159Z,6.32
2022-09-07T01:10:19.490Z,11.85
2022-09-07T01:12:45.776Z,7.53
2022-09-07T01:15:12.314Z,9.20
2022-09-07T01:17:47.354Z,11.55
2022-09-07T01:20:25.966Z,12.63
2022-09-07T01:23:04.252Z,16.27
2022-09-07T01:25:50.298Z,10.43
2022-09-07T01:28:16.614Z,13.38
2022-09-07T01:30:51.509Z,12.50
2022-09-07T01:33:39.771Z,13.93
2022-09-07T01:36:06.061Z,16.75
2022-09-07T01:38:35.340Z,10.07
2022-09-07T01:41:20.499Z,10.75
2022-09-07T01:44:02.733Z,17.00
2022-09-07T01:46:29.153Z,11.93
2022-09-07T01:48:58.599Z,14.75
2022-09-07T01:51:28.483Z,13.88
2022-09-07T01:53:57.513Z,18.92
2022-09-07T01:56:30.610Z,15.60
2022-09-07T01:58:59.473Z,14.68
2022-09-07T02:01:28.523Z,20.52
2022-09-07T02:04:02.839Z,17.50
2022-09-07T02:06:36.377Z,21.15
2022-09-07T02:09:04.558Z,22.85
2022-09-07T02:11:34.814Z,25.50
2022-09-07T02:14:03.548Z,25.30
2022-09-07T02:16:30.985Z,24.90
2022-09-07T02:19:01.060Z,22.35
2022-09-07T02:21:34.638Z,16.77
2022-09-07T02:24:03.299Z,25.40
2022-09-07T02:26:30.479Z,25.17
2022-09-07T02:28:57.024Z,21.05
2022-09-07T02:31:23.602Z,22.30
2022-09-07T02:33:49.990Z,22.88
2022-09-07T02:36:17.475Z,21.50
2022-09-07T02:38:43.784Z,31.02
2022-09-07T02:41:33.417Z,35.88
2022-09-07T02:44:00.601Z,35.10
2022-09-07T02:46:45.559Z,36.22
2022-09-07T02:49:30.994Z,48.63
2022-09-07T02:52:06.406Z,39.35
2022-09-07T02:54:42.922Z,53.05
2022-09-07T02:57:09.227Z,56.88
2022-09-07T02:59:39.822Z,58.45
2022-09-07T03:02:08.995Z,56.00
2022-09-07T03:04:53.956Z,57.42
2022-09-07T03:07:26.023Z,56.80
2022-09-07T03:09:54.990Z,51.42
2022-09-07T03:12:21.320Z,42.40
2022-09-07T03:14:47.618Z,40.88
2022-09-07T03:17:14.171Z,35.03
2022-09-07T03:19:40.602Z,25.80
2022-09-07T03:22:07.150Z,28.95
2022-09-07T03:24:33.608Z,24.30
2022-09-07T03:27:00.584Z,24.05
2022-09-07T03:29:26.891Z,24.65
2022-09-07T03:31:53.147Z,26.48
2022-09-07T03:34:19.420Z,31.92
2022-09-07T03:36:45.729Z,27.92
2022-09-07T03:39:12.394Z,32.50
2022-09-07T03:41:38.742Z,29.27
2022-09-07T03:44:05.347Z,28.00
2022-09-07T03:46:32.129Z,33.58
2022-09-07T03:48:58.421Z,34.10
2022-09-07T03:51:24.778Z,38.88
2022-09-07T03:53:51.270Z,43.88
2022-09-07T03:56:21.512Z,40.33
2022-09-07T03:58:48.966Z,36.70
2022-09-07T04:01:17.102Z,37.67
2022-09-07T04:03:43.895Z,35.17
2022-09-07T04:06:10.230Z,33.83
2022-09-07T04:08:37.370Z,31.45
2022-09-07T04:11:04.844Z,35.50
2022-09-07T04:13:32.134Z,42.05
2022-09-07T04:15:58.395Z,38.97
2022-09-07T04:18:24.878Z,45.95
2022-09-07T04:20:51.338Z,42.00
2022-09-07T04:23:18.505Z,39.50
2022-09-07T04:25:48.413Z,44.00
2022-09-07T04:28:15.445Z,34.95
2022-09-07T04:30:41.772Z,32.15
2022-09-07T04:33:09.260Z,31.48
2022-09-07T04:35:36.555Z,31.58
2022-09-07T04:38:02.883Z,42.08
2022-09-07T04:40:29.416Z,39.70
2022-09-07T04:42:55.657Z,54.38
2022-09-07T04:45:21.926Z,48.17
2022-09-07T04:47:48.704Z,55.22
2022-09-07T04:50:15.466Z,61.63
2022-09-07T04:52:41.724Z,69.00
2022-09-07T04:55:08.233Z,76.78
2022-09-07T04:57:34.750Z,56.35
2022-09-07T05:00:01.237Z,61.28
2022-09-07T05:02:27.581Z,63.75
2022-09-07T05:04:53.903Z,77.68
2022-09-07T05:07:20.174Z,84.55
2022-09-07T05:09:46.840Z,83.10
2022-09-07T05:12:13.090Z,62.65
2022-09-07T05:14:39.349Z,82.18
2022-09-07T05:17:05.595Z,97.30
2022-09-07T05:19:31.935Z,68.93
2022-09-07T05:21:58.495Z,65.38
2022-09-07T05:24:26.765Z,60.92
2022-09-07T05:26:53.153Z,65.97
2022-09-07T05:32:06.173Z,104.05
2022-09-07T05:34:32.745Z,64.32
2022-09-07T05:36:59.607Z,73.90
2022-09-07T05:39:26.403Z,92.45
2022-09-07T05:41:52.777Z,85.80
2022-09-07T05:47:05.691Z,67.88
2022-09-07T05:49:32.340Z,65.97
2022-09-07T05:51:58.623Z,65.35
2022-09-07T05:54:25.398Z,71.15
2022-09-07T05:56:51.704Z,55.83
2022-09-07T05:59:17.971Z,58.88
2022-09-07T06:01:44.287Z,59.55
2022-09-07T06:04:10.621Z,66.88
2022-09-07T06:06:38.354Z,65.10
2022-09-07T06:09:04.622Z,74.47
2022-09-07T06:11:30.867Z,54.35
2022-09-07T06:13:57.149Z,43.97
2022-09-07T06:16:23.465Z,39.47
2022-09-07T06:18:49.908Z,38.40
2022-09-07T06:21:20.362Z,25.77
2022-09-07T06:23:47.277Z,28.23
2022-09-07T06:26:13.712Z,23.98
2022-09-07T06:28:41.654Z,19.50
2022-09-07T06:31:15.193Z,15.80
2022-09-07T06:33:42.230Z,19.50
2022-09-07T06:36:15.512Z,14.98
2022-09-07T06:38:42.404Z,13.73
2022-09-07T06:43:59.124Z,10.40
2022-09-07T06:49:12.121Z,8.32
2022-09-07T06:51:38.455Z,8.60
2022-09-07T06:56:51.621Z,10.93
2022-09-07T06:59:17.952Z,8.55
2022-09-07T07:01:44.545Z,5.97
2022-09-07T07:04:11.055Z,7.28
2022-09-07T07:06:37.787Z,7.63
2022-09-07T07:09:04.931Z,7.32
2022-09-07T07:11:31.347Z,7.35
2022-09-07T07:13:57.914Z,3.72
2022-09-07T07:16:24.739Z,6.32
2022-09-07T07:18:54.434Z,2.97
2022-09-07T07:21:20.897Z,4.10
2022-09-07T07:23:51.093Z,4.13
2022-09-07T07:26:21.957Z,6.45
2022-09-07T07:29:07.085Z,4.18
2022-09-07T07:34:01.285Z,2.42
2022-09-07T07:36:28.033Z,3.47
2022-09-07T07:44:13.709Z,11.02
2022-09-07T07:46:40.393Z,4.32
2022-09-07T07:49:06.646Z,8.95
2022-09-07T07:52:49.826Z,2.53
2022-09-07T07:54:19.131Z,3.30
2022-09-07T07:56:45.335Z,5.68
2022-09-07T07:59:15.521Z,4.43
2022-09-07T08:01:43.614Z,6.55
2022-09-07T08:04:10.093Z,6.13
2022-09-07T08:06:36.892Z,7.10
2022-09-07T08:09:03.169Z,4.03
2022-09-07T08:11:31.102Z,6.28
2022-09-07T08:14:00.051Z,2.60
2022-09-07T08:16:26.445Z,4.20
2022-09-07T08:18:53.560Z,2.53
2022-09-07T08:21:19.765Z,3.92
2022-09-07T08:23:45.948Z,5.57
2022-09-07T08:26:12.201Z,3.67
2022-09-07T08:28:40.281Z,4.20
2022-09-07T08:31:07.918Z,5.68
2022-09-07T08:33:34.920Z,2.95
2022-09-07T08:36:02.702Z,2.88
2022-09-07T08:38:30.306Z,2.65
2022-09-07T08:40:56.928Z,4.55
2022-09-07T08:43:38.344Z,7.00
2022-09-07T08:46:13.863Z,2.50
2022-09-07T08:48:40.165Z,6.25
2022-09-07T08:51:12.839Z,4.75
2022-09-07T08:53:45.592Z,5.55
2022-09-07T08:56:33.653Z,3.67
2022-09-07T08:59:01.492Z,5.53
2022-09-07T09:01:31.264Z,5.93
2022-09-07T09:07:07.137Z,5.70
2022-09-07T09:09:36.577Z,2.75
2022-09-07T09:12:11.919Z,4.20
2022-09-07T09:14:56.934Z,7.30
2022-09-07T09:17:29.298Z,5.03
2022-09-07T09:19:55.595Z,5.70
2022-09-07T09:22:23.097Z,6.35
2022-09-07T09:24:53.231Z,6.05
2022-09-07T09:27:19.565Z,7.43
2022-09-07T09:29:45.867Z,5.10
2022-09-07T09:32:32.645Z,4.22
2022-09-07T09:35:14.124Z,2.95
2022-09-07T09:37:41.078Z,4.53
2022-09-07T09:40:17.379Z,4.13
2022-09-07T09:42:44.243Z,2.53
2022-09-07T09:45:20.747Z,3.05
2022-09-07T09:47:51.445Z,1.85
2022-09-07T09:53:21.911Z,4.90
2022-09-07T09:55:50.684Z,4.95
2022-09-07T10:01:26.687Z,2.28
2022-09-07T10:06:20.672Z,4.15
2022-09-07T10:08:56.621Z,6.85
2022-09-07T10:14:28.819Z,4.82
2022-09-07T10:16:55.733Z,2.03
2022-09-07T10:19:35.945Z,4.00
2022-09-07T10:22:03.495Z,4.03
2022-09-07T10:24:37.951Z,9.30
2022-09-07T10:27:18.902Z,3.55
2022-09-07T10:29:45.106Z,5.90
2022-09-07T10:32:18.320Z,5.63
2022-09-07T10:34:54.693Z,4.40
2022-09-07T10:37:42.007Z,6.07
2022-09-07T10:40:28.106Z,5.47
2022-09-07T10:43:22.998Z,5.50
2022-09-07T10:46:06.590Z,4.40
2022-09-07T10:48:55.562Z,3.05
2022-09-07T10:51:27.512Z,5.75
2022-09-07T10:56:59.124Z,7.43
2022-09-07T11:00:07.565Z,6.10
2022-09-07T11:02:30.327Z,3.95
2022-09-07T11:05:14.929Z,3.08
2022-09-07T11:07:54.788Z,3.38
2022-09-07T11:10:39.917Z,3.35
2022-09-07T11:15:38.154Z,5.80
2022-09-07T11:18:13.373Z,4.82
2022-09-07T11:20:44.005Z,5.45
2022-09-07T11:23:22.535Z,2.67
2022-09-07T11:26:07.417Z,3.80
2022-09-07T11:28:43.266Z,4.30
2022-09-07T11:31:18.377Z,6.25
2022-09-07T11:34:23.710Z,3.80
2022-09-07T11:36:32.976Z,4.53
2022-09-07T11:39:18.454Z,3.85
2022-09-07T11:41:52.586Z,4.70
2022-09-07T11:44:24.664Z,5.40
2022-09-07T11:46:53.391Z,3.60
2022-09-07T11:49:21.316Z,5.90
2022-09-07T11:51:53.717Z,2.97
2022-09-07T11:54:23.238Z,4.82
2022-09-07T11:57:12.693Z,3.90
2022-09-07T11:59:48.266Z,3.40
2022-09-07T12:02:14.485Z,6.50
2022-09-07T12:04:59.456Z,3.88
2022-09-07T12:10:02.596Z,2.92
2022-09-07T12:12:42.003Z,5.55
2022-09-07T12:15:17.469Z,2.10
2022-09-07T12:17:49.565Z,3.17
2022-09-07T12:20:17.603Z,6.20
2022-09-07T12:23:04.823Z,5.97
2022-09-07T12:25:33.226Z,5.50
2022-09-07T12:27:59.494Z,4.63
2022-09-07T12:30:25.987Z,6.80
2022-09-07T12:32:54.976Z,3.10
2022-09-07T12:35:48.545Z,3.33
2022-09-07T12:38:17.777Z,2.72
2022-09-07T12:40:43.993Z,3.05
2022-09-07T12:43:12.986Z,3.28
2022-09-07T12:45:39.355Z,3.03
2022-09-07T12:48:14.742Z,8.13
2022-09-07T12:50:59.286Z,6.10
2022-09-07T12:53:44.007Z,1.60
2022-09-07T12:56:16.682Z,5.00
2022-09-07T12:58:51.277Z,3.70
2022-09-07T13:01:20.847Z,5.50
2022-09-07T13:04:15.944Z,4.00
2022-09-07T13:07:06.329Z,2.22
2022-09-07T13:09:32.654Z,3.47
2022-09-07T13:11:59.945Z,6.07
2022-09-07T13:14:29.662Z,2.58
2022-09-07T13:17:17.625Z,3.78
2022-09-07T13:19:47.275Z,4.25
2022-09-07T13:22:43.079Z,4.22
2022-09-07T13:25:20.332Z,5.40
2022-09-07T13:28:13.226Z,4.80
2022-09-07T13:30:39.524Z,5.95
2022-09-07T13:33:24.095Z,2.65
2022-09-07T13:35:52.464Z,2.88
2022-09-07T13:38:19.428Z,3.15
2022-09-07T13:40:46.858Z,3.65
2022-09-07T13:43:19.892Z,4.32
2022-09-07T13:45:49.884Z,4.13
2022-09-07T13:48:25.185Z,4.20
2022-09-07T13:51:10.408Z,2.88
2022-09-07T13:54:00.497Z,3.47
2022-09-07T13:56:49.872Z,2.58
2022-09-07T13:59:18.940Z,4.10
2022-09-07T14:01:49.267Z,4.78
2022-09-07T14:04:23.524Z,2.42
2022-09-07T14:06:49.771Z,2.97
2022-09-07T14:09:17.530Z,4.80
2022-09-07T14:11:48.071Z,3.88
2022-09-07T14:14:16.241Z,3.67
2022-09-07T14:16:44.170Z,1.98
2022-09-07T14:19:17.206Z,3.20
2022-09-07T14:21:43.606Z,2.80
2022-09-07T14:24:30.790Z,7.10
2022-09-07T14:26:56.981Z,2.72
2022-09-07T14:29:32.945Z,3.33
2022-09-07T14:32:00.224Z,4.57
2022-09-07T14:34:34.782Z,5.07
2022-09-07T14:37:03.590Z,2.42
2022-09-07T14:39:30.311Z,3.90
2022-09-07T14:41:57.587Z,3.80
2022-09-07T14:44:31.467Z,5.03
2022-09-07T14:46:59.522Z,7.30
2022-09-07T14:49:25.908Z,4.55
2022-09-07T14:51:53.394Z,2.95
2022-09-07T14:54:20.738Z,5.07
2022-09-07T14:57:23.136Z,1.77
2022-09-07T14:59:49.410Z,4.82
2022-09-07T15:02:18.491Z,2.50
2022-09-07T15:04:45.861Z,3.45
2022-09-07T15:07:28.457Z,3.33
2022-09-07T15:09:54.957Z,5.20
2022-09-07T15:12:38.642Z,5.90
2022-09-07T15:15:27.040Z,4.15
2022-09-07T15:17:54.320Z,2.75
2022-09-07T15:20:35.978Z,3.17
2022-09-07T15:23:08.034Z,2.60
2022-09-07T15:25:34.469Z,2.83
2022-09-07T15:28:00.862Z,7.60
2022-09-07T15:30:27.312Z,6.05
2022-09-07T15:32:57.375Z,4.65
2022-09-07T15:35:24.048Z,4.15
2022-09-07T15:38:58.940Z,4.35
2022-09-07T15:41:10.475Z,4.05
2022-09-07T15:43:30.116Z,3.60
2022-09-07T15:45:56.775Z,4.20
2022-09-07T15:48:25.176Z,5.25
2022-09-07T15:50:53.982Z,3.78
2022-09-07T15:56:06.630Z,3.67
2022-09-07T15:58:32.947Z,4.75
2022-09-07T16:03:50.342Z,4.90
2022-09-07T16:06:16.608Z,5.00
2022-09-07T16:08:42.941Z,3.08
2022-09-07T16:11:18.494Z,3.47
2022-09-07T16:13:46.900Z,3.17
2022-09-07T16:16:15.666Z,2.95
2022-09-07T16:18:46.559Z,2.28
2022-09-07T16:21:13.970Z,5.43
2022-09-07T16:23:42.214Z,4.22
2022-09-07T16:26:10.229Z,8.00
2022-09-07T16:28:43.570Z,3.97
2022-09-07T16:31:14.028Z,8.27
2022-09-07T16:33:40.602Z,4.53
2022-09-07T16:36:09.440Z,5.95
2022-09-07T16:38:51.117Z,5.07
2022-09-07T16:41:23.249Z,4.20
2022-09-07T16:43:49.714Z,4.65
2022-09-07T16:46:17.778Z,5.13
2022-09-07T16:48:44.307Z,4.28
2022-09-07T16:51:14.286Z,3.13
2022-09-07T16:53:40.970Z,6.10
2022-09-07T16:56:08.446Z,3.25
2022-09-07T16:58:36.995Z,2.92
2022-09-07T17:01:04.757Z,4.80
2022-09-07T17:03:31.425Z,3.53
2022-09-07T17:05:59.444Z,4.00
2022-09-07T17:08:25.723Z,5.65
2022-09-07T17:10:52.386Z,4.82
2022-09-07T17:13:18.601Z,3.05
2022-09-07T17:15:44.836Z,4.63
2022-09-07T17:18:11.114Z,4.60
2022-09-07T17:20:37.388Z,3.20
2022-09-07T17:23:03.580Z,5.65
2022-09-07T17:25:29.749Z,7.15
2022-09-07T17:27:55.962Z,6.38
2022-09-07T17:30:24.768Z,3.67
2022-09-07T17:32:51.164Z,1.77
2022-09-07T17:35:19.202Z,5.47
2022-09-07T17:37:45.449Z,4.05
2022-09-07T17:40:11.703Z,7.55
2022-09-07T17:45:27.675Z,6.15
2022-09-07T17:47:54.238Z,4.95
2022-09-07T17:50:20.471Z,5.60
2022-09-07T17:52:47.114Z,6.78
2022-09-07T17:55:18.613Z,9.40
2022-09-07T17:57:44.797Z,4.82
2022-09-07T18:00:12.164Z,1.90
2022-09-07T18:02:38.907Z,2.72
2022-09-07T18:05:05.461Z,5.93
2022-09-07T18:07:32.268Z,3.58
2022-09-07T18:09:59.071Z,6.18
2022-09-07T18:12:25.371Z,6.32
2022-09-07T18:14:51.648Z,4.85
2022-09-07T18:17:17.915Z,3.47
2022-09-07T18:19:44.591Z,7.88
2022-09-07T18:22:10.808Z,6.07
2022-09-07T18:24:37.239Z,3.53
2022-09-07T18:27:04.183Z,3.97
2022-09-07T18:29:33.578Z,4.43
2022-09-07T18:32:00.538Z,5.22
2022-09-07T18:34:28.497Z,8.18
2022-09-07T18:36:55.187Z,3.90
2022-09-07T18:39:21.540Z,4.47
2022-09-07T18:41:47.723Z,5.47
2022-09-07T18:47:00.357Z,5.07
2022-09-07T18:49:26.545Z,3.53
2022-09-07T18:54:39.487Z,4.75
2022-09-07T18:57:06.921Z,5.10
2022-09-07T18:59:33.315Z,12.65
2022-09-07T19:02:03.951Z,6.20
2022-09-07T19:07:20.209Z,4.97
2022-09-07T19:09:47.883Z,4.70
2022-09-07T19:12:14.051Z,4.75
2022-09-07T19:14:40.281Z,8.15
2022-09-07T19:17:06.527Z,5.65
2022-09-07T19:19:34.170Z,6.25
2022-09-07T19:22:02.229Z,6.88
2022-09-07T19:24:28.498Z,6.28
2022-09-07T19:26:59.576Z,6.25
2022-09-07T19:29:26.765Z,7.75
2022-09-07T19:32:06.682Z,8.82
2022-09-07T19:34:34.002Z,6.70
2022-09-07T19:37:00.575Z,7.93
2022-09-07T19:39:26.967Z,5.25
2022-09-07T19:41:53.509Z,8.25
2022-09-07T19:44:19.800Z,4.38
2022-09-07T19:46:46.129Z,9.40
2022-09-07T19:49:13.126Z,8.18
2022-09-07T19:51:39.755Z,3.90
2022-09-07T19:54:08.909Z,5.85
2022-09-07T19:56:36.630Z,7.32
2022-09-07T19:59:03.199Z,6.90
2022-09-07T20:01:29.479Z,7.75
2022-09-07T20:03:57.332Z,5.50
2022-09-07T20:06:23.609Z,8.20
2022-09-07T20:08:49.854Z,8.68
2022-09-07T20:11:17.056Z,6.07
2022-09-07T20:13:43.718Z,4.78
2022-09-07T20:16:14.460Z,7.55
2022-09-07T20:18:41.162Z,8.05
2022-09-07T20:21:08.670Z,5.60
2022-09-07T20:23:35.431Z,5.35
2022-09-07T20:26:03.157Z,4.82
2022-09-07T20:28:29.716Z,4.97
2022-09-07T20:30:56.236Z,5.82
2022-09-07T20:33:23.088Z,7.00
2022-09-07T20:35:49.809Z,5.00
2022-09-07T20:38:20.586Z,5.10
2022-09-07T20:40:50.095Z,8.82
2022-09-07T20:43:16.286Z,7.03
2022-09-07T20:45:42.485Z,6.40
2022-09-07T20:48:08.756Z,4.22
2022-09-07T20:50:34.909Z,6.60
2022-09-07T20:53:01.125Z,6.10
2022-09-07T20:55:27.332Z,6.95
2022-09-07T20:57:53.530Z,12.10
2022-09-07T21:00:19.845Z,10.90
2022-09-07T21:02:46.078Z,6.88
2022-09-07T21:05:12.317Z,3.50
2022-09-07T21:07:38.850Z,6.00
2022-09-07T21:10:06.925Z,4.75
2022-09-07T21:12:33.383Z,4.95
2022-09-07T21:14:59.563Z,7.93
2022-09-07T21:17:25.848Z,3.67
2022-09-07T21:19:52.267Z,4.60
2022-09-07T21:22:19.220Z,3.63
2022-09-07T21:24:45.450Z,6.43
2022-09-07T21:27:11.666Z,5.68
2022-09-07T21:29:37.873Z,6.93
2022-09-07T21:32:04.376Z,5.95
2022-09-07T21:34:30.586Z,8.93
2022-09-07T21:36:56.975Z,7.10
2022-09-07T21:39:23.213Z,5.82
2022-09-07T21:41:49.434Z,5.70
2022-09-07T21:44:16.060Z,6.43
2022-09-07T21:46:42.804Z,3.10
2022-09-07T21:49:09.520Z,5.13
2022-09-07T21:51:36.055Z,6.22
2022-09-07T21:54:02.354Z,6.55
2022-09-07T21:56:29.285Z,6.10
2022-09-07T21:58:55.828Z,6.03
2022-09-07T22:01:22.997Z,4.85
2022-09-07T22:03:53.267Z,4.75
2022-09-07T22:06:19.513Z,6.82
2022-09-07T22:08:45.813Z,8.27
2022-09-07T22:11:13.522Z,6.45
2022-09-07T22:13:39.760Z,5.43
2022-09-07T22:16:06.737Z,6.93
2022-09-07T22:18:33.105Z,4.28
2022-09-07T22:21:02.188Z,5.25
2022-09-07T22:23:32.402Z,5.10
2022-09-07T22:25:58.824Z,3.65
2022-09-07T22:28:25.127Z,6.15
2022-09-07T22:30:53.444Z,6.38
2022-09-07T22:33:19.645Z,8.05
2022-09-07T22:35:45.829Z,6.07
2022-09-07T22:38:15.129Z,5.93
2022-09-07T22:40:41.475Z,5.30
2022-09-07T22:43:07.701Z,5.68
2022-09-07T22:45:33.892Z,5.65
2022-09-07T22:48:00.180Z,5.95
2022-09-07T22:50:26.635Z,6.43
2022-09-07T22:52:52.866Z,5.68
2022-09-07T22:55:19.052Z,5.10
2022-09-07T22:57:46.135Z,3.80
2022-09-07T23:00:13.034Z,2.80
2022-09-07T23:02:39.512Z,3.50
2022-09-07T23:05:05.947Z,4.60
2022-09-07T23:07:32.169Z,4.57
2022-09-07T23:09:58.327Z,4.45
2022-09-07T23:12:24.838Z,5.72
2022-09-07T23:14:51.031Z,7.15
2022-09-07T23:17:17.629Z,6.05
2022-09-07T23:19:43.942Z,4.20
2022-09-07T23:22:10.366Z,5.25
2022-09-07T23:24:36.630Z,4.97
2022-09-07T23:27:02.834Z,13.10
2022-09-07T23:29:29.044Z,5.78
2022-09-07T23:31:55.279Z,4.63
2022-09-07T23:34:21.539Z,6.72
2022-09-07T23:36:47.734Z,5.97
2022-09-07T23:39:13.945Z,5.55
2022-09-07T23:41:40.199Z,4.35
2022-09-07T23:44:06.464Z,5.75
2022-09-07T23:46:33.015Z,6.05
2022-09-07T23:48:59.392Z,2.90
2022-09-07T23:51:25.678Z,4.10
2022-09-07T23:53:52.582Z,3.72
2022-09-07T23:56:19.193Z,3.83
2022-09-07T23:58:45.414Z,5.20
